createdAt,value
2023-04-02T00:00:30.577Z,20.02
2023-04-02T00:05:58.765Z,20.47
2023-04-02T00:11:00.731Z,20.83
2023-04-02T00:16:04.248Z,21.60
2023-04-02T00:21:39.884Z,21.30
2023-04-02T00:26:48.625Z,21.55
2023-04-02T00:31:53.697Z,21.40
2023-04-02T00:36:55.789Z,21.75
2023-04-02T00:41:58.637Z,15.60
2023-04-02T00:47:14.411Z,23.20
2023-04-02T00:52:17.384Z,21.98
2023-04-02T00:57:22.751Z,23.38
2023-04-02T01:02:32.342Z,23.02
2023-04-02T01:07:43.754Z,22.30
2023-04-02T01:13:02.085Z,23.45
2023-04-02T01:18:26.840Z,23.95
2023-04-02T01:23:36.238Z,22.52
2023-04-02T01:29:02.691Z,22.92
2023-04-02T01:34:06.139Z,23.00
2023-04-02T01:39:17.831Z,22.95
2023-04-02T01:44:30.884Z,21.98
2023-04-02T01:54:34.598Z,21.02
2023-04-02T01:59:36.483Z,20.23
2023-04-02T02:04:38.742Z,20.38
2023-04-02T02:09:40.638Z,21.23
2023-04-02T02:14:51.651Z,20.63
2023-04-02T02:19:55.660Z,20.40
2023-04-02T02:24:58.989Z,19.65
2023-04-02T02:30:06.531Z,19.90
2023-04-02T02:35:12.698Z,18.67
2023-04-02T02:40:26.894Z,18.77
2023-04-02T02:45:31.458Z,17.98
2023-04-02T02:50:33.327Z,17.90
2023-04-02T02:55:36.208Z,13.33
2023-04-02T03:00:38.326Z,17.70
2023-04-02T03:05:40.272Z,17.20
2023-04-02T03:11:00.119Z,17.87
2023-04-02T03:16:08.065Z,16.80
2023-04-02T03:21:22.000Z,18.00
2023-04-02T03:27:11.322Z,17.23
2023-04-02T03:32:28.125Z,15.73
2023-04-02T03:37:41.699Z,16.17
2023-04-02T03:43:00.114Z,16.70
2023-04-02T03:48:20.373Z,15.90
2023-04-02T03:53:26.017Z,15.35
2023-04-02T03:58:48.535Z,15.88
2023-04-02T04:03:51.740Z,16.35
2023-04-02T04:08:56.261Z,16.77
2023-04-02T04:14:14.056Z,16.17
2023-04-02T04:19:44.649Z,17.10
2023-04-02T04:24:47.278Z,16.27
2023-04-02T04:34:58.474Z,15.98
2023-04-02T04:40:09.449Z,15.93
2023-04-02T04:45:36.264Z,15.52
2023-04-02T04:50:42.032Z,14.48
2023-04-02T04:55:44.352Z,14.45
2023-04-02T05:01:07.981Z,14.10
2023-04-02T05:06:15.272Z,14.50
2023-04-02T05:11:32.192Z,14.40
2023-04-02T05:16:40.342Z,13.40
2023-04-02T05:22:12.926Z,12.77
2023-04-02T05:27:20.856Z,13.40
2023-04-02T05:32:29.018Z,12.55
2023-04-02T05:37:31.072Z,13.40
2023-04-02T05:42:34.858Z,12.30
2023-04-02T05:47:36.691Z,12.18
2023-04-02T05:52:42.653Z,12.10
2023-04-02T05:58:13.571Z,13.05
2023-04-02T06:03:19.738Z,13.00
2023-04-02T06:08:32.998Z,12.02
2023-04-02T06:13:34.901Z,11.73
2023-04-02T06:18:36.864Z,12.37
2023-04-02T06:23:43.170Z,12.43
2023-04-02T06:29:00.488Z,12.48
2023-04-02T06:34:03.806Z,12.00
2023-04-02T06:39:11.367Z,13.65
2023-04-02T06:44:17.758Z,13.27
2023-04-02T06:49:21.886Z,13.65
2023-04-02T06:54:23.769Z,13.75
2023-04-02T06:59:25.827Z,12.67
2023-04-02T07:04:27.779Z,11.35
2023-04-02T07:09:29.864Z,12.10
2023-04-02T07:14:31.809Z,12.55
2023-04-02T07:19:33.685Z,12.63
2023-04-02T07:24:35.544Z,12.90
2023-04-02T07:29:37.565Z,11.50
2023-04-02T07:34:40.368Z,12.63
2023-04-02T07:39:42.393Z,11.93
2023-04-02T07:44:44.417Z,11.75
2023-04-02T07:49:46.271Z,12.37
2023-04-02T07:54:48.156Z,11.87
2023-04-02T07:59:49.993Z,11.67
2023-04-02T08:04:51.857Z,12.07
2023-04-02T08:09:53.781Z,10.73
2023-04-02T08:14:55.702Z,11.07
2023-04-02T08:20:00.677Z,11.50
2023-04-02T08:25:02.623Z,11.68
2023-04-02T08:30:05.535Z,11.35
2023-04-02T08:40:21.025Z,11.60
2023-04-02T08:50:35.341Z,11.85
2023-04-02T08:55:40.817Z,12.93
2023-04-02T09:00:44.352Z,12.25
2023-04-02T09:05:46.476Z,12.60
2023-04-02T09:10:58.896Z,13.05
2023-04-02T09:16:10.807Z,12.73
2023-04-02T09:21:21.706Z,13.70
2023-04-02T09:26:27.646Z,13.48
2023-04-02T09:31:37.974Z,13.40
2023-04-02T09:36:40.028Z,13.65
2023-04-02T09:41:42.885Z,13.65
2023-04-02T09:46:56.115Z,14.18
2023-04-02T09:52:18.045Z,13.73
2023-04-02T09:57:22.036Z,13.80
2023-04-02T10:02:25.099Z,14.35
2023-04-02T10:07:34.373Z,14.13
2023-04-02T10:12:37.690Z,13.90
2023-04-02T10:17:39.701Z,13.82
2023-04-02T10:22:41.654Z,14.00
2023-04-02T10:28:02.179Z,14.90
2023-04-02T10:33:08.695Z,14.65
2023-04-02T10:38:35.344Z,14.95
2023-04-02T10:43:57.822Z,13.85
2023-04-02T10:49:24.197Z,14.35
2023-04-02T10:54:40.692Z,15.10
2023-04-02T10:59:49.136Z,14.38
2023-04-02T11:04:51.083Z,14.32
2023-04-02T11:09:54.978Z,14.55
2023-04-02T11:14:56.830Z,13.63
2023-04-02T11:20:37.073Z,13.27
2023-04-02T11:25:39.097Z,12.98
2023-04-02T11:30:40.991Z,12.75
2023-04-02T11:35:43.003Z,12.65
2023-04-02T11:40:50.911Z,12.43
2023-04-02T11:45:53.716Z,12.70
2023-04-02T11:50:55.758Z,12.55
2023-04-02T11:55:57.596Z,12.25
2023-04-02T12:01:24.275Z,11.63
2023-04-02T12:06:34.754Z,12.80
2023-04-02T12:11:37.939Z,13.25
2023-04-02T12:16:39.776Z,12.30
2023-04-02T12:21:41.646Z,11.80
2023-04-02T12:26:43.690Z,12.25
2023-04-02T12:31:48.316Z,12.10
2023-04-02T12:37:04.184Z,11.80
2023-04-02T12:42:06.173Z,10.98
2023-04-02T12:47:08.062Z,11.43
2023-04-02T12:52:14.013Z,13.43
2023-04-02T12:57:25.837Z,12.70
2023-04-02T13:02:29.663Z,12.18
2023-04-02T13:07:32.813Z,12.40
2023-04-02T13:12:34.664Z,12.45
2023-04-02T13:17:44.753Z,12.77
2023-04-02T13:22:48.310Z,13.90
2023-04-02T13:27:50.146Z,12.13
2023-04-02T13:33:00.959Z,12.82
2023-04-02T13:38:02.983Z,12.32
2023-04-02T13:43:05.410Z,12.95
2023-04-02T13:48:10.198Z,12.80
2023-04-02T13:53:24.930Z,13.05
2023-04-02T13:58:26.791Z,13.63
2023-04-02T14:03:28.612Z,13.20
2023-04-02T14:08:47.278Z,12.07
2023-04-02T14:14:07.405Z,11.52
2023-04-02T14:19:38.474Z,11.90
2023-04-02T14:24:54.222Z,12.35
2023-04-02T14:30:04.609Z,11.32
2023-04-02T14:35:26.960Z,11.57
2023-04-02T14:40:34.854Z,11.45
2023-04-02T14:46:00.997Z,11.00
2023-04-02T14:51:30.712Z,11.77
2023-04-02T14:56:36.869Z,11.00
2023-04-02T15:01:40.970Z,11.80
2023-04-02T15:06:50.567Z,12.27
2023-04-02T15:11:54.442Z,11.23
2023-04-02T15:16:56.428Z,12.20
2023-04-02T15:22:05.296Z,12.02
2023-04-02T15:27:25.979Z,12.77
2023-04-02T15:32:34.392Z,13.82
2023-04-02T15:37:41.606Z,12.80
2023-04-02T15:42:47.276Z,12.50
2023-04-02T15:48:07.841Z,13.30
2023-04-02T15:53:33.786Z,13.20
2023-04-02T15:58:38.870Z,13.02
2023-04-02T16:03:47.941Z,13.32
2023-04-02T16:08:54.594Z,12.93
2023-04-02T16:14:15.668Z,13.15
2023-04-02T16:19:20.218Z,12.13
2023-04-02T16:24:23.125Z,12.23
2023-04-02T16:29:47.550Z,13.30
2023-04-02T16:35:41.920Z,12.52
2023-04-02T16:41:10.169Z,13.23
2023-04-02T16:46:40.664Z,12.90
2023-04-02T16:52:02.031Z,12.15
2023-04-02T16:57:13.342Z,14.15
2023-04-02T17:02:36.515Z,12.98
2023-04-02T17:08:04.536Z,12.30
2023-04-02T17:13:24.411Z,11.70
2023-04-02T17:18:26.378Z,11.82
2023-04-02T17:23:28.399Z,12.77
2023-04-02T17:28:33.646Z,12.32
2023-04-02T17:33:35.525Z,11.52
2023-04-02T17:38:57.553Z,11.40
2023-04-02T17:44:24.335Z,11.43
2023-04-02T17:49:36.868Z,9.60
2023-04-02T17:54:48.738Z,9.95
2023-04-02T18:00:10.488Z,9.93
2023-04-02T18:05:12.318Z,9.25
2023-04-02T18:10:28.187Z,9.50
2023-04-02T18:15:42.579Z,9.48
2023-04-02T18:21:21.399Z,9.43
2023-04-02T18:26:41.391Z,9.75
2023-04-02T18:32:19.758Z,9.10
2023-04-02T18:37:44.714Z,8.70
2023-04-02T18:43:06.350Z,9.52
2023-04-02T18:48:24.986Z,10.52
2023-04-02T18:53:27.241Z,10.10
2023-04-02T18:58:51.876Z,9.05
2023-04-02T19:03:57.750Z,8.50
2023-04-02T19:09:01.529Z,10.07
2023-04-02T19:14:14.450Z,9.18
2023-04-02T19:19:27.118Z,9.93
2023-04-02T19:24:41.395Z,9.80
2023-04-02T19:30:27.018Z,13.32
2023-04-02T19:35:32.584Z,11.00
2023-04-02T19:40:57.024Z,9.82
2023-04-02T19:45:58.821Z,9.90
2023-04-02T19:51:00.775Z,10.30
2023-04-02T19:56:02.743Z,9.50
2023-04-02T20:01:04.711Z,10.77
2023-04-02T20:06:06.715Z,8.90
2023-04-02T20:11:08.472Z,8.97
2023-04-02T20:16:10.404Z,8.77
2023-04-02T20:21:12.369Z,8.50
2023-04-02T20:26:14.374Z,10.68
2023-04-02T20:31:17.382Z,8.97
2023-04-02T20:36:19.236Z,8.48
2023-04-02T20:41:21.169Z,8.97
2023-04-02T20:46:23.399Z,8.75
2023-04-02T20:51:25.297Z,9.27
2023-04-02T20:56:27.227Z,9.07
2023-04-02T21:01:29.741Z,9.20
2023-04-02T21:06:33.458Z,8.68
2023-04-02T21:11:35.965Z,11.13
2023-04-02T21:16:37.938Z,9.65
2023-04-02T21:21:40.025Z,10.73
2023-04-02T21:26:41.955Z,10.60
2023-04-02T21:31:43.942Z,7.60
2023-04-02T21:36:47.483Z,10.02
2023-04-02T21:41:50.513Z,9.50
2023-04-02T21:46:53.920Z,11.05
2023-04-02T21:51:56.074Z,9.73
2023-04-02T21:56:58.030Z,7.17
2023-04-02T22:02:00.122Z,9.70
2023-04-02T22:07:02.146Z,9.32
2023-04-02T22:12:04.194Z,9.90
2023-04-02T22:17:06.076Z,9.20
2023-04-02T22:22:08.295Z,10.45
2023-04-02T22:27:10.316Z,9.18
2023-04-02T22:32:12.259Z,8.83
2023-04-02T22:37:14.122Z,11.00
2023-04-02T22:42:15.968Z,10.00
2023-04-02T22:47:17.730Z,11.40
2023-04-02T22:52:19.603Z,10.97
2023-04-02T22:57:21.594Z,10.87
2023-04-02T23:02:23.492Z,11.02
2023-04-02T23:07:25.525Z,9.20
2023-04-02T23:12:27.443Z,10.77
2023-04-02T23:17:29.338Z,11.57
2023-04-02T23:22:31.384Z,9.17
2023-04-02T23:27:33.465Z,13.25
2023-04-02T23:32:35.506Z,11.00
2023-04-02T23:37:37.378Z,11.38
2023-04-02T23:42:39.314Z,11.20
2023-04-02T23:47:41.306Z,12.17
2023-04-02T23:52:43.273Z,14.70
2023-04-02T23:57:45.196Z,19.63
